Time;durP1;ratioP1;P1;durP2;ratioP2;P2;SDS_P1;SDS_P2;PMS_P1;PMS_P2;Temp;Humidity;BMP_temperature;BMP_pressure;BME280_temperature;BME280_humidity;BME280_pressure;Samples;Min_cycle;Max_cycle;Signal;HPM_P1;HPM_P2
2022/12/16 00:01:51;;;;;;;74.17;34.30;;;;;;;-2.48;82.48;98373.27;2170249;81;21321;-80
2022/12/16 00:04:52;;;;;;;82.50;37.53;;;;;;;-2.55;82.49;98368.21;2170292;81;20968;-80
2022/12/16 00:07:52;;;;;;;78.50;35.70;;;;;;;-2.52;82.46;98359.83;2170452;81;20893;-79
2022/12/16 00:10:53;;;;;;;73.47;34.47;;;;;;;-2.55;82.38;98351.59;2172466;81;20918;-79
2022/12/16 00:13:53;;;;;;;71.23;33.53;;;;;;;-2.58;82.51;98351.44;2169996;81;21285;-79
2022/12/16 00:16:53;;;;;;;76.73;36.57;;;;;;;-2.60;82.49;98363.25;2170190;81;20972;-79
2022/12/16 00:19:54;;;;;;;77.17;36.20;;;;;;;-2.58;82.32;98367.64;2171087;81;20968;-79
2022/12/16 00:22:54;;;;;;;74.37;35.97;;;;;;;-2.57;82.78;98370.68;2171495;81;20941;-79
2022/12/16 00:25:55;;;;;;;77.33;34.77;;;;;;;-2.54;82.72;98364.86;2170965;82;20956;-79
2022/12/16 00:28:55;;;;;;;86.27;37.83;;;;;;;-2.47;82.86;98364.80;2170931;81;20926;-80
2022/12/16 00:31:55;;;;;;;79.40;35.13;;;;;;;-2.47;82.18;98368.63;2169991;81;20973;-80
2022/12/16 00:34:56;;;;;;;76.87;35.70;;;;;;;-2.47;82.25;98356.73;2170943;81;21028;-80
2022/12/16 00:37:56;;;;;;;80.83;35.17;;;;;;;-2.41;82.39;98359.62;2170846;81;20918;-80
2022/12/16 00:40:57;;;;;;;78.87;37.83;;;;;;;-2.37;82.47;98350.44;2169693;81;20918;-79
2022/12/16 00:43:57;;;;;;;84.17;36.33;;;;;;;-2.37;81.87;98356.44;2170375;81;20960;-79
2022/12/16 00:46:57;;;;;;;77.40;36.03;;;;;;;-2.42;81.93;98360.42;2171001;81;20970;-79
2022/12/16 00:49:58;;;;;;;75.43;35.30;;;;;;;-2.41;82.12;98360.02;2171392;81;21289;-79
2022/12/16 00:52:58;;;;;;;76.53;36.23;;;;;;;-2.49;82.14;98351.94;2171732;81;20925;-79
2022/12/16 00:55:59;;;;;;;79.93;35.57;;;;;;;-2.53;82.16;98360.63;2171240;81;20973;-79
2022/12/16 00:58:59;;;;;;;84.93;39.30;;;;;;;-2.52;82.48;98353.44;2171901;81;20909;-79
2022/12/16 01:02:00;;;;;;;86.00;38.53;;;;;;;-2.50;82.33;98337.80;2170154;81;21332;-79
2022/12/16 01:05:00;;;;;;;73.40;35.80;;;;;;;-2.48;82.56;98336.20;2171640;81;20980;-79
2022/12/16 01:08:00;;;;;;;81.50;39.20;;;;;;;-2.50;82.38;98342.91;2170148;82;20944;-79
2022/12/16 01:11:01;;;;;;;82.57;36.80;;;;;;;-2.55;82.49;98337.95;2170107;81;21012;-79
2022/12/16 01:14:01;;;;;;;79.13;35.43;;;;;;;-2.56;82.72;98324.29;2169939;81;21388;-79
2022/12/16 01:17:02;;;;;;;83.67;38.17;;;;;;;-2.59;82.57;98317.73;2171947;81;20889;-79
2022/12/16 01:20:02;;;;;;;83.20;39.30;;;;;;;-2.58;82.73;98309.27;2171161;81;20901;-79
2022/12/16 01:23:02;;;;;;;82.47;36.73;;;;;;;-2.56;82.64;98296.18;2170175;81;20969;-80
2022/12/16 01:26:03;;;;;;;77.37;37.07;;;;;;;-2.58;82.46;98305.44;2170109;81;21297;-79
2022/12/16 01:29:03;;;;;;;79.27;38.50;;;;;;;-2.64;82.76;98308.51;2171073;81;20930;-79
2022/12/16 01:32:05;;;;;;;85.90;38.60;;;;;;;-2.64;82.70;98298.29;2170738;81;21000;-79
2022/12/16 01:35:04;;;;;;;78.93;35.57;;;;;;;-2.62;82.68;98285.59;2170163;81;21020;-79
2022/12/16 01:38:04;;;;;;;72.67;34.60;;;;;;;-2.67;82.65;98292.13;2170793;81;21334;-78
2022/12/16 01:41:05;;;;;;;72.90;33.53;;;;;;;-2.72;82.84;98281.66;2169901;81;20878;-79
2022/12/16 01:44:05;;;;;;;73.70;34.47;;;;;;;-2.70;82.95;98281.34;2170159;82;20965;-78
2022/12/16 01:47:06;;;;;;;68.50;33.17;;;;;;;-2.64;82.99;98289.74;2171044;81;20890;-79
2022/12/16 01:50:07;;;;;;;73.07;33.47;;;;;;;-2.62;83.00;98296.70;2171127;81;20918;-79
2022/12/16 01:53:06;;;;;;;71.90;33.17;;;;;;;-2.65;82.93;98301.64;2170978;81;20956;-79
2022/12/16 01:56:07;;;;;;;68.73;33.30;;;;;;;-2.62;83.21;98290.31;2170976;81;20978;-79
2022/12/16 01:59:07;;;;;;;66.83;33.20;;;;;;;-2.53;83.21;98283.97;2170145;81;21293;-79
2022/12/16 02:02:08;;;;;;;67.40;31.40;;;;;;;-2.51;83.02;98275.58;2170991;81;21074;-79
2022/12/16 02:05:20;;;;;;;66.23;33.13;;;;;;;-2.53;83.15;98260.97;2169982;81;21020;-79
2022/12/16 02:08:21;;;;;;;65.90;32.87;;;;;;;-2.50;83.29;98262.01;2170336;81;20917;-80
2022/12/16 02:11:21;;;;;;;70.10;32.57;;;;;;;-2.42;82.94;98256.91;2170336;81;21364;-80
2022/12/16 02:14:22;;;;;;;67.40;33.70;;;;;;;-2.43;83.04;98259.38;2170830;81;20937;-80
2022/12/16 02:17:22;;;;;;;64.43;31.23;;;;;;;-2.46;83.21;98261.77;2171093;81;20957;-79
2022/12/16 02:20:22;;;;;;;71.17;34.00;;;;;;;-2.43;83.25;98268.33;2170305;81;20933;-80
2022/12/16 02:23:23;;;;;;;76.83;34.90;;;;;;;-2.42;82.98;98262.41;2170091;81;20953;-79
2022/12/16 02:26:24;;;;;;;76.83;35.17;;;;;;;-2.37;83.34;98254.59;2170379;81;20941;-79
2022/12/16 02:29:24;;;;;;;74.50;35.70;;;;;;;-2.36;83.32;98252.52;2172011;81;20981;-80
2022/12/16 02:32:24;;;;;;;77.53;35.67;;;;;;;-2.36;83.21;98239.73;2170098;82;20949;-80
2022/12/16 02:35:25;;;;;;;85.87;37.90;;;;;;;-2.30;83.27;98231.98;2171951;81;20996;-80
2022/12/16 02:38:25;;;;;;;104.20;42.00;;;;;;;-2.29;83.24;98227.34;2170933;82;20953;-79
2022/12/16 02:41:25;;;;;;;97.57;41.67;;;;;;;-2.29;82.93;98228.62;2171222;81;20965;-79
2022/12/16 02:44:26;;;;;;;81.93;36.57;;;;;;;-2.31;83.00;98219.13;2170676;80;20960;-79
2022/12/16 02:47:26;;;;;;;73.07;33.77;;;;;;;-2.35;82.92;98212.09;2170440;81;20922;-79
2022/12/16 02:50:26;;;;;;;71.30;34.83;;;;;;;-2.40;83.30;98207.14;2171016;81;20934;-79
2022/12/16 02:53:27;;;;;;;67.73;31.97;;;;;;;-2.44;83.33;98196.28;2171022;81;20933;-79
2022/12/16 02:56:27;;;;;;;64.00;32.77;;;;;;;-2.43;83.76;98189.09;2170996;81;20902;-79
2022/12/16 02:59:28;;;;;;;65.10;32.23;;;;;;;-2.41;83.73;98191.33;2170977;81;20961;-79
2022/12/16 03:02:28;;;;;;;60.97;28.13;;;;;;;-2.40;83.79;98196.92;2170255;81;20941;-79
2022/12/16 03:05:28;;;;;;;67.70;32.43;;;;;;;-2.38;84.02;98195.32;2171737;81;20996;-79
2022/12/16 03:08:29;;;;;;;60.77;30.37;;;;;;;-2.36;84.18;98184.77;2171177;81;21359;-79
2022/12/16 03:11:29;;;;;;;70.47;33.70;;;;;;;-2.36;84.11;98178.39;2170037;81;20918;-79
2022/12/16 03:14:30;;;;;;;67.90;32.93;;;;;;;-2.38;84.27;98164.65;2169769;82;21021;-78
2022/12/16 03:17:31;;;;;;;65.37;31.77;;;;;;;-2.41;84.43;98150.03;2170737;81;20977;-78
2022/12/16 03:20:31;;;;;;;63.13;31.27;;;;;;;-2.42;84.70;98144.45;2169889;81;20941;-78
2022/12/16 03:23:32;;;;;;;62.83;30.53;;;;;;;-2.35;84.92;98127.73;2170122;81;21017;-78
2022/12/16 03:26:33;;;;;;;57.57;30.10;;;;;;;-2.36;84.97;98123.03;2171801;82;20961;-78
2022/12/16 03:29:32;;;;;;;63.90;31.83;;;;;;;-2.41;84.97;98123.59;2170967;81;20980;-80
2022/12/16 03:32:33;;;;;;;63.13;31.53;;;;;;;-2.43;85.22;98119.69;2171060;81;20966;-79
2022/12/16 03:35:33;;;;;;;66.43;34.23;;;;;;;-2.38;85.65;98130.14;2170528;81;21431;-78
2022/12/16 03:38:34;;;;;;;75.37;35.03;;;;;;;-2.40;85.63;98125.35;2169973;82;20976;-78
2022/12/16 03:41:34;;;;;;;58.57;29.93;;;;;;;-2.36;86.07;98119.59;2170828;81;21242;-78
2022/12/16 03:44:34;;;;;;;66.67;31.90;;;;;;;-2.35;85.91;98118.80;2169963;82;21048;-77
2022/12/16 03:47:35;;;;;;;63.53;31.53;;;;;;;-2.35;86.08;98116.23;2172862;81;21384;-79
2022/12/16 03:50:35;;;;;;;64.80;31.33;;;;;;;-2.31;85.94;98118.15;2172915;81;20928;-79
2022/12/16 03:53:36;;;;;;;58.40;29.50;;;;;;;-2.28;86.08;98128.53;2172949;81;20972;-79
2022/12/16 03:56:36;;;;;;;60.90;28.93;;;;;;;-2.26;86.16;98114.14;2172831;81;21316;-79
2022/12/16 03:59:36;;;;;;;63.73;31.03;;;;;;;-2.23;86.20;98114.70;2172610;81;20986;-78
2022/12/16 04:02:37;;;;;;;61.13;29.80;;;;;;;-2.23;86.07;98110.86;2172923;81;20964;-78
2022/12/16 04:05:40;;;;;;;61.63;30.97;;;;;;;-2.22;86.19;98100.70;2172761;81;21012;-79
2022/12/16 04:08:41;;;;;;;61.20;29.27;;;;;;;-2.15;86.17;98099.33;2172670;82;20973;-79
2022/12/16 04:24:56;;;;;;;58.97;29.13;;;;;;;-2.01;86.47;98088.09;2170531;82;21079;-80
2022/12/16 04:27:57;;;;;;;59.47;28.43;;;;;;;-1.96;86.50;98087.52;2170801;81;20961;-80
2022/12/16 04:30:57;;;;;;;63.23;29.43;;;;;;;-1.95;86.37;98081.59;2170734;81;21035;-80
